sensor_id;sensor_type;location;lat;lon;timestamp;pressure;altitude;pressure_sealevel;temperature;humidity
48517;BME280;34310;51.904;4.256;2023-01-09T00:01:01;99419.06;;;15.41;65.54
48517;BME280;34310;51.904;4.256;2023-01-09T00:03:29;99416.38;;;15.38;65.52
48517;BME280;34310;51.904;4.256;2023-01-09T00:05:56;99418.88;;;15.33;65.75
48517;BME280;34310;51.904;4.256;2023-01-09T00:08:24;99412.66;;;15.30;65.94
48517;BME280;34310;51.904;4.256;2023-01-09T00:10:51;99400.41;;;15.26;65.99
48517;BME280;34310;51.904;4.256;2023-01-09T00:13:18;99399.50;;;15.24;65.91
48517;BME280;34310;51.904;4.256;2023-01-09T00:15:45;99407.34;;;15.25;65.82
48517;BME280;34310;51.904;4.256;2023-01-09T00:18:15;99416.81;;;15.23;65.96
48517;BME280;34310;51.904;4.256;2023-01-09T00:20:42;99410.59;;;15.18;65.98
48517;BME280;34310;51.904;4.256;2023-01-09T00:23:09;99409.69;;;15.16;66.00
48517;BME280;34310;51.904;4.256;2023-01-09T00:25:36;99411.25;;;15.11;66.19
48517;BME280;34310;51.904;4.256;2023-01-09T00:28:04;99405.97;;;15.08;66.42
48517;BME280;34310;51.904;4.256;2023-01-09T00:30:31;99404.22;;;15.07;66.27
48517;BME280;34310;51.904;4.256;2023-01-09T00:32:58;99405.06;;;15.06;66.34
48517;BME280;34310;51.904;4.256;2023-01-09T00:35:27;99405.00;;;15.04;66.25
48517;BME280;34310;51.904;4.256;2023-01-09T00:37:55;99397.97;;;15.02;66.55
48517;BME280;34310;51.904;4.256;2023-01-09T00:40:22;99392.69;;;14.99;66.43
48517;BME280;34310;51.904;4.256;2023-01-09T00:42:53;99390.03;;;14.97;66.44
48517;BME280;34310;51.904;4.256;2023-01-09T00:45:24;99393.44;;;14.95;66.46
48517;BME280;34310;51.904;4.256;2023-01-09T00:48:05;99393.38;;;14.93;66.58
48517;BME280;34310;51.904;4.256;2023-01-09T00:50:34;99392.41;;;14.90;66.75
48517;BME280;34310;51.904;4.256;2023-01-09T00:53:08;99388.84;;;14.86;66.86
48517;BME280;34310;51.904;4.256;2023-01-09T00:55:37;99394.88;;;14.85;66.84
48517;BME280;34310;51.904;4.256;2023-01-09T00:58:05;99393.03;;;14.81;67.07
48517;BME280;34310;51.904;4.256;2023-01-09T01:00:33;99402.50;;;14.79;66.93
48517;BME280;34310;51.904;4.256;2023-01-09T01:03:01;99392.19;;;14.82;67.08
48517;BME280;34310;51.904;4.256;2023-01-09T01:05:28;99394.66;;;14.77;67.16
48517;BME280;34310;51.904;4.256;2023-01-09T01:08:16;99395.44;;;14.75;67.05
48517;BME280;34310;51.904;4.256;2023-01-09T01:10:45;99385.84;;;14.74;67.25
48517;BME280;34310;51.904;4.256;2023-01-09T01:13:13;99404.81;;;14.71;67.22
48517;BME280;34310;51.904;4.256;2023-01-09T01:15:42;99400.47;;;14.70;67.38
48517;BME280;34310;51.904;4.256;2023-01-09T01:18:10;99401.31;;;14.69;67.35
48517;BME280;34310;51.904;4.256;2023-01-09T01:20:44;99391.78;;;14.70;67.25
48517;BME280;34310;51.904;4.256;2023-01-09T01:23:12;99401.25;;;14.68;67.43
48517;BME280;34310;51.904;4.256;2023-01-09T01:25:40;99406.41;;;14.66;67.28
48517;BME280;34310;51.904;4.256;2023-01-09T01:28:08;99400.38;;;14.67;67.27
48517;BME280;34310;51.904;4.256;2023-01-09T01:30:40;99400.38;;;14.67;67.31
48517;BME280;34310;51.904;4.256;2023-01-09T01:33:09;99394.16;;;14.62;67.37
48517;BME280;34310;51.904;4.256;2023-01-09T01:35:37;99395.81;;;14.60;67.43
48517;BME280;34310;51.904;4.256;2023-01-09T01:38:04;99392.34;;;14.60;67.46
48517;BME280;34310;51.904;4.256;2023-01-09T01:40:31;99385.44;;;14.60;67.43
48517;BME280;34310;51.904;4.256;2023-01-09T01:43:00;99380.97;;;14.56;67.52
48517;BME280;34310;51.904;4.256;2023-01-09T01:45:28;99382.78;;;14.59;67.44
48517;BME280;34310;51.904;4.256;2023-01-09T01:48:03;99381.69;;;14.50;67.58
48517;BME280;34310;51.904;4.256;2023-01-09T01:50:34;99380.75;;;14.48;67.76
48517;BME280;34310;51.904;4.256;2023-01-09T01:53:11;99391.94;;;14.46;67.81
48517;BME280;34310;51.904;4.256;2023-01-09T01:55:44;99394.53;;;14.46;67.85
48517;BME280;34310;51.904;4.256;2023-01-09T01:58:14;99398.00;;;14.46;67.88
48517;BME280;34310;51.904;4.256;2023-01-09T02:00:44;99404.00;;;14.45;67.74
48517;BME280;34310;51.904;4.256;2023-01-09T02:03:16;99408.31;;;14.45;67.78
48517;BME280;34310;51.904;4.256;2023-01-09T02:05:44;99411.78;;;14.45;67.69
48517;BME280;34310;51.904;4.256;2023-01-09T02:08:12;99402.97;;;14.42;67.81
48517;BME280;34310;51.904;4.256;2023-01-09T02:10:39;99406.41;;;14.41;67.88
48517;BME280;34310;51.904;4.256;2023-01-09T02:13:08;99404.59;;;14.38;68.04
48517;BME280;34310;51.904;4.256;2023-01-09T02:18:52;99407.06;;;14.34;68.00
48517;BME280;34310;51.904;4.256;2023-01-09T02:24:19;99401.88;;;14.34;68.09
48517;BME280;34310;51.904;4.256;2023-01-09T02:27:08;99404.47;;;14.34;68.03
48517;BME280;34310;51.904;4.256;2023-01-09T02:32:35;99400.84;;;14.29;68.25
48517;BME280;34310;51.904;4.256;2023-01-09T02:35:28;99404.25;;;14.27;68.17
48517;BME280;34310;51.904;4.256;2023-01-09T02:40:49;99402.34;;;14.22;68.34
48517;BME280;34310;51.904;4.256;2023-01-09T02:43:19;99404.91;;;14.20;68.48
48517;BME280;34310;51.904;4.256;2023-01-09T02:45:47;99406.63;;;14.20;68.50
48517;BME280;34310;51.904;4.256;2023-01-09T02:48:14;99403.22;;;14.22;68.36
48517;BME280;34310;51.904;4.256;2023-01-09T02:50:52;99398.94;;;14.23;68.33
48517;BME280;34310;51.904;4.256;2023-01-09T02:56:28;99382.13;;;14.39;67.72
48517;BME280;34310;51.904;4.256;2023-01-09T03:01:53;99373.97;;;14.53;67.43
48517;BME280;34310;51.904;4.256;2023-01-09T03:04:43;99367.31;;;14.62;67.16
48517;BME280;34310;51.904;4.256;2023-01-09T03:07:35;99375.22;;;14.66;67.15
48517;BME280;34310;51.904;4.256;2023-01-09T03:10:44;99370.22;;;14.72;67.18
48517;BME280;34310;51.904;4.256;2023-01-09T03:13:15;99364.25;;;14.75;67.17
48517;BME280;34310;51.904;4.256;2023-01-09T03:15:45;99363.47;;;14.77;67.04
48517;BME280;34310;51.904;4.256;2023-01-09T03:18:20;99358.38;;;14.80;67.11
48517;BME280;34310;51.904;4.256;2023-01-09T03:20:49;99353.16;;;14.80;67.11
48517;BME280;34310;51.904;4.256;2023-01-09T03:23:17;99354.97;;;14.83;67.13
48517;BME280;34310;51.904;4.256;2023-01-09T03:25:44;99357.66;;;14.86;66.94
48517;BME280;34310;51.904;4.256;2023-01-09T03:28:26;99350.75;;;14.86;66.86
48517;BME280;34310;51.904;4.256;2023-01-09T03:30:54;99356.88;;;14.88;66.82
48517;BME280;34310;51.904;4.256;2023-01-09T03:33:21;99362.13;;;14.90;66.94
48517;BME280;34310;51.904;4.256;2023-01-09T03:35:48;99359.56;;;14.92;66.90
48517;BME280;34310;51.904;4.256;2023-01-09T03:38:16;99359.56;;;14.92;66.65
48517;BME280;34310;51.904;4.256;2023-01-09T03:40:43;99362.16;;;14.92;66.70
48517;BME280;34310;51.904;4.256;2023-01-09T03:43:10;99367.41;;;14.93;66.68
48517;BME280;34310;51.904;4.256;2023-01-09T03:45:38;99357.84;;;14.92;66.68
48517;BME280;34310;51.904;4.256;2023-01-09T03:48:05;99364.72;;;14.90;66.85
48517;BME280;34310;51.904;4.256;2023-01-09T03:50:32;99358.63;;;14.90;66.78
48517;BME280;34310;51.904;4.256;2023-01-09T03:53:00;99360.34;;;14.89;66.65
48517;BME280;34310;51.904;4.256;2023-01-09T03:55:28;99360.41;;;14.91;66.78
48517;BME280;34310;51.904;4.256;2023-01-09T03:57:55;99350.84;;;14.90;66.60
48517;BME280;34310;51.904;4.256;2023-01-09T04:00:22;99349.91;;;14.87;66.84
48517;BME280;34310;51.904;4.256;2023-01-09T04:02:50;99346.38;;;14.85;66.93
48517;BME280;34310;51.904;4.256;2023-01-09T04:05:17;99348.91;;;14.82;66.85
48517;BME280;34310;51.904;4.256;2023-01-09T04:07:44;99348.94;;;14.84;66.87
48517;BME280;34310;51.904;4.256;2023-01-09T04:10:12;99342.81;;;14.82;66.79
48517;BME280;34310;51.904;4.256;2023-01-09T04:12:39;99340.22;;;14.82;66.75
48517;BME280;34310;51.904;4.256;2023-01-09T04:15:07;99331.56;;;14.81;66.88
48517;BME280;34310;51.904;4.256;2023-01-09T04:17:34;99339.31;;;14.80;66.80
48517;BME280;34310;51.904;4.256;2023-01-09T04:20:01;99333.19;;;14.78;66.82
48517;BME280;34310;51.904;4.256;2023-01-09T04:22:29;99332.19;;;14.74;66.93
48517;BME280;34310;51.904;4.256;2023-01-09T04:24:57;99318.25;;;14.72;66.99
48517;BME280;34310;51.904;4.256;2023-01-09T04:27:24;99324.34;;;14.73;66.94
48517;BME280;34310;51.904;4.256;2023-01-09T04:29:52;99309.59;;;14.72;67.12
48517;BME280;34310;51.904;4.256;2023-01-09T04:32:19;99321.66;;;14.70;67.08
48517;BME280;34310;51.904;4.256;2023-01-09T04:34:46;99321.59;;;14.68;67.02
48517;BME280;34310;51.904;4.256;2023-01-09T04:37:14;99310.38;;;14.69;67.13
48517;BME280;34310;51.904;4.256;2023-01-09T04:39:41;99319.84;;;14.67;67.14
48517;BME280;34310;51.904;4.256;2023-01-09T04:42:12;99310.28;;;14.66;67.15
48517;BME280;34310;51.904;4.256;2023-01-09T04:44:39;99325.00;;;14.66;67.15
48517;BME280;34310;51.904;4.256;2023-01-09T04:47:06;99324.94;;;14.64;67.15
48517;BME280;34310;51.904;4.256;2023-01-09T04:49:34;99316.28;;;14.64;67.22
48517;BME280;34310;51.904;4.256;2023-01-09T04:52:01;99317.13;;;14.63;67.14
48517;BME280;34310;51.904;4.256;2023-01-09T04:54:28;99306.63;;;14.60;67.28
48517;BME280;34310;51.904;4.256;2023-01-09T04:56:56;99311.78;;;14.58;67.21
48517;BME280;34310;51.904;4.256;2023-01-09T04:59:23;99306.59;;;14.58;67.17
48517;BME280;34310;51.904;4.256;2023-01-09T05:01:50;99293.53;;;14.55;67.27
48517;BME280;34310;51.904;4.256;2023-01-09T05:04:20;99284.06;;;14.57;67.17
48517;BME280;34310;51.904;4.256;2023-01-09T05:06:48;99284.81;;;14.53;67.28
48517;BME280;34310;51.904;4.256;2023-01-09T05:09:15;99296.06;;;14.53;67.26
48517;BME280;34310;51.904;4.256;2023-01-09T05:11:42;99295.19;;;14.53;67.36
48517;BME280;34310;51.904;4.256;2023-01-09T05:14:10;99293.34;;;14.49;67.34
48517;BME280;34310;51.904;4.256;2023-01-09T05:16:38;99287.25;;;14.48;67.39
48517;BME280;34310;51.904;4.256;2023-01-09T05:19:06;99288.06;;;14.46;67.36
48517;BME280;34310;51.904;4.256;2023-01-09T05:21:33;99290.56;;;14.44;67.60
48517;BME280;34310;51.904;4.256;2023-01-09T05:24:00;99282.78;;;14.44;67.52
48517;BME280;34310;51.904;4.256;2023-01-09T05:26:28;99281.94;;;14.45;67.48
48517;BME280;34310;51.904;4.256;2023-01-09T05:28:55;99289.63;;;14.42;67.49
48517;BME280;34310;51.904;4.256;2023-01-09T05:31:24;99289.56;;;14.41;67.61
48517;BME280;34310;51.904;4.256;2023-01-09T05:33:52;99291.25;;;14.39;67.69
48517;BME280;34310;51.904;4.256;2023-01-09T05:36:19;99287.72;;;14.37;67.64
48517;BME280;34310;51.904;4.256;2023-01-09T05:38:46;99289.44;;;14.36;67.62
48517;BME280;34310;51.904;4.256;2023-01-09T05:41:14;99294.59;;;14.35;67.68
48517;BME280;34310;51.904;4.256;2023-01-09T05:43:41;99294.59;;;14.35;67.68
48517;BME280;34310;51.904;4.256;2023-01-09T05:46:08;99294.50;;;14.32;67.74
48517;BME280;34310;51.904;4.256;2023-01-09T05:48:36;99286.69;;;14.32;67.86
48517;BME280;34310;51.904;4.256;2023-01-09T05:51:04;99294.41;;;14.29;67.82
48517;BME280;34310;51.904;4.256;2023-01-09T05:53:31;99292.72;;;14.31;67.75
48517;BME280;34310;51.904;4.256;2023-01-09T05:55:58;99285.78;;;14.30;67.81
48517;BME280;34310;51.904;4.256;2023-01-09T05:58:26;99293.50;;;14.28;67.92
48517;BME280;34310;51.904;4.256;2023-01-09T06:00:53;99292.63;;;14.27;67.90
48517;BME280;34310;51.904;4.256;2023-01-09T06:03:20;99284.81;;;14.26;67.94
48517;BME280;34310;51.904;4.256;2023-01-09T06:05:48;99287.34;;;14.24;68.04
48517;BME280;34310;51.904;4.256;2023-01-09T06:08:15;99295.50;;;14.37;67.54
48517;BME280;34310;51.904;4.256;2023-01-09T06:10:42;99293.13;;;14.43;67.37
48517;BME280;34310;51.904;4.256;2023-01-09T06:13:11;99297.66;;;14.48;67.40
48517;BME280;34310;51.904;4.256;2023-01-09T06:15:38;99297.84;;;14.54;67.10
48517;BME280;34310;51.904;4.256;2023-01-09T06:18:06;99300.56;;;14.59;67.18
48517;BME280;34310;51.904;4.256;2023-01-09T06:20:33;99305.06;;;14.65;67.01
48517;BME280;34310;51.904;4.256;2023-01-09T06:23:00;99314.59;;;14.66;67.20
48517;BME280;34310;51.904;4.256;2023-01-09T06:25:28;99316.41;;;14.68;67.16
48517;BME280;34310;51.904;4.256;2023-01-09T06:27:55;99333.81;;;14.71;67.10
48517;BME280;34310;51.904;4.256;2023-01-09T06:30:22;99331.25;;;14.72;67.05
48517;BME280;34310;51.904;4.256;2023-01-09T06:32:50;99337.44;;;14.76;67.03
48517;BME280;34310;51.904;4.256;2023-01-09T06:35:17;99340.94;;;14.76;66.96
48517;BME280;34310;51.904;4.256;2023-01-09T06:37:47;99338.34;;;14.76;66.93
48517;BME280;34310;51.904;4.256;2023-01-09T06:40:18;99351.38;;;14.78;67.09
48517;BME280;34310;51.904;4.256;2023-01-09T06:42:59;99352.25;;;14.78;66.90
48517;BME280;34310;51.904;4.256;2023-01-09T06:45:26;99353.16;;;14.80;66.92
48517;BME280;34310;51.904;4.256;2023-01-09T06:47:54;99364.44;;;14.81;66.99
48517;BME280;34310;51.904;4.256;2023-01-09T06:50:21;99363.59;;;14.82;66.88
48517;BME280;34310;51.904;4.256;2023-01-09T06:52:48;99361.88;;;14.82;66.86
48517;BME280;34310;51.904;4.256;2023-01-09T06:55:16;99368.84;;;14.83;66.67
48517;BME280;34310;51.904;4.256;2023-01-09T06:57:43;99373.16;;;14.83;66.70
48517;BME280;34310;51.904;4.256;2023-01-09T07:00:11;99379.25;;;14.83;66.63
48517;BME280;34310;51.904;4.256;2023-01-09T07:02:39;99387.00;;;14.82;66.73
48517;BME280;34310;51.904;4.256;2023-01-09T07:05:06;99399.00;;;14.78;66.63
48517;BME280;34310;51.904;4.256;2023-01-09T07:07:34;99399.81;;;14.76;66.71
48517;BME280;34310;51.904;4.256;2023-01-09T07:10:02;99400.63;;;14.75;66.84
48517;BME280;34310;51.904;4.256;2023-01-09T07:12:29;99413.47;;;14.70;66.75
48517;BME280;34310;51.904;4.256;2023-01-09T07:14:56;99429.00;;;14.69;66.80
48517;BME280;34310;51.904;4.256;2023-01-09T07:17:24;99433.22;;;14.65;66.89
48517;BME280;34310;51.904;4.256;2023-01-09T07:19:51;99433.22;;;14.65;66.99
48517;BME280;34310;51.904;4.256;2023-01-09T07:22:18;99447.00;;;14.63;66.92
48517;BME280;34310;51.904;4.256;2023-01-09T07:24:46;99454.72;;;14.61;67.10
48517;BME280;34310;51.904;4.256;2023-01-09T07:27:13;99450.38;;;14.60;67.22
48517;BME280;34310;51.904;4.256;2023-01-09T07:29:40;99454.53;;;14.55;67.17
48517;BME280;34310;51.904;4.256;2023-01-09T07:32:08;99462.38;;;14.56;67.10
48517;BME280;34310;51.904;4.256;2023-01-09T07:34:35;99471.09;;;14.59;67.07
48517;BME280;34310;51.904;4.256;2023-01-09T07:37:02;99471.88;;;14.56;67.09
48517;BME280;34310;51.904;4.256;2023-01-09T07:39:30;99486.44;;;14.51;67.29
48517;BME280;34310;51.904;4.256;2023-01-09T07:41:57;99494.22;;;14.51;67.12
48517;BME280;34310;51.904;4.256;2023-01-09T07:44:24;99498.53;;;14.50;67.24
48517;BME280;34310;51.904;4.256;2023-01-09T07:46:51;99502.84;;;14.50;67.29
48517;BME280;34310;51.904;4.256;2023-01-09T07:49:19;99514.97;;;14.49;67.21
48517;BME280;34310;51.904;4.256;2023-01-09T07:51:46;99521.78;;;14.46;67.46
48517;BME280;34310;51.904;4.256;2023-01-09T07:54:14;99531.25;;;14.45;67.48
48517;BME280;34310;51.904;4.256;2023-01-09T07:56:42;99535.50;;;14.43;67.43
48517;BME280;34310;51.904;4.256;2023-01-09T07:59:09;99545.69;;;14.39;67.55
48517;BME280;34310;51.904;4.256;2023-01-09T08:01:36;99558.69;;;14.39;67.69
48517;BME280;34310;51.904;4.256;2023-01-09T08:04:04;99560.44;;;14.40;67.63
48517;BME280;34310;51.904;4.256;2023-01-09T08:06:31;99558.53;;;14.34;67.87
48517;BME280;34310;51.904;4.256;2023-01-09T08:08:59;99573.22;;;14.34;67.63
48517;BME280;34310;51.904;4.256;2023-01-09T08:11:26;99582.78;;;14.35;67.63
48517;BME280;34310;51.904;4.256;2023-01-09T08:13:53;99585.28;;;14.32;67.88
48517;BME280;34310;51.904;4.256;2023-01-09T08:16:21;99587.81;;;14.30;67.92
48517;BME280;34310;51.904;4.256;2023-01-09T08:18:48;99597.25;;;14.28;68.01
48517;BME280;34310;51.904;4.256;2023-01-09T08:21:15;99597.22;;;14.26;68.03
48517;BME280;34310;51.904;4.256;2023-01-09T08:23:43;99610.13;;;14.25;67.97
48517;BME280;34310;51.904;4.256;2023-01-09T08:26:11;99606.53;;;14.21;68.12
48517;BME280;34310;51.904;4.256;2023-01-09T08:28:39;99608.31;;;14.22;68.24
48517;BME280;34310;51.904;4.256;2023-01-09T08:31:06;99600.78;;;14.30;67.78
48517;BME280;34310;51.904;4.256;2023-01-09T08:33:33;99618.41;;;14.39;67.58
48517;BME280;34310;51.904;4.256;2023-01-09T08:36:01;99616.06;;;14.45;67.57
48517;BME280;34310;51.904;4.256;2023-01-09T08:38:29;99624.91;;;14.50;67.23
48517;BME280;34310;51.904;4.256;2023-01-09T08:40:56;99632.91;;;14.56;67.07
48517;BME280;34310;51.904;4.256;2023-01-09T08:43:23;99645.19;;;14.60;67.10
48517;BME280;34310;51.904;4.256;2023-01-09T08:46:18;99648.00;;;14.66;66.95
48517;BME280;34310;51.904;4.256;2023-01-09T08:49:05;99647.22;;;14.69;66.97
48517;BME280;34310;51.904;4.256;2023-01-09T08:51:33;99662.91;;;14.72;67.10
48517;BME280;34310;51.904;4.256;2023-01-09T08:54:00;99669.03;;;14.74;66.96
48517;BME280;34310;51.904;4.256;2023-01-09T08:56:27;99674.38;;;14.77;66.95
48517;BME280;34310;51.904;4.256;2023-01-09T08:58:54;99678.75;;;14.78;66.73
48517;BME280;34310;51.904;4.256;2023-01-09T09:01:22;99687.47;;;14.80;66.97
48517;BME280;34310;51.904;4.256;2023-01-09T09:03:49;99687.53;;;14.81;66.69
48517;BME280;34310;51.904;4.256;2023-01-09T09:06:16;99695.31;;;14.81;66.63
48517;BME280;34310;51.904;4.256;2023-01-09T09:08:44;99697.09;;;14.82;66.83
48517;BME280;34310;51.904;4.256;2023-01-09T09:11:11;99712.72;;;14.84;66.71
48517;BME280;34310;51.904;4.256;2023-01-09T09:13:38;99709.31;;;14.85;66.74
48517;BME280;34310;51.904;4.256;2023-01-09T09:16:06;99720.56;;;14.85;66.75
48517;BME280;34310;51.904;4.256;2023-01-09T09:18:33;99719.75;;;14.86;66.76
48517;BME280;34310;51.904;4.256;2023-01-09T09:21:00;99730.19;;;14.88;66.55
48517;BME280;34310;51.904;4.256;2023-01-09T09:23:28;99726.72;;;14.87;66.63
48517;BME280;34310;51.904;4.256;2023-01-09T09:25:55;99725.00;;;14.88;66.72
48517;BME280;34310;51.904;4.256;2023-01-09T09:28:22;99734.56;;;14.89;66.67
48517;BME280;34310;51.904;4.256;2023-01-09T09:30:50;99737.16;;;14.89;66.63
48517;BME280;34310;51.904;4.256;2023-01-09T09:33:17;99752.75;;;14.89;66.69
48517;BME280;34310;51.904;4.256;2023-01-09T09:35:44;99761.44;;;14.90;66.78
48517;BME280;34310;51.904;4.256;2023-01-09T09:38:11;99769.22;;;14.90;66.65
48517;BME280;34310;51.904;4.256;2023-01-09T09:41:02;99763.16;;;14.89;66.60
48517;BME280;34310;51.904;4.256;2023-01-09T09:44:10;99763.97;;;14.88;66.54
48517;BME280;34310;51.904;4.256;2023-01-09T09:52:43;99780.41;;;14.87;66.63
48517;BME280;34310;51.904;4.256;2023-01-09T09:55:33;99779.53;;;14.86;66.50
48517;BME280;34310;51.904;4.256;2023-01-09T09:58:20;99792.56;;;14.88;66.58
48517;BME280;34310;51.904;4.256;2023-01-09T10:00:50;99795.09;;;14.86;66.67
48517;BME280;34310;51.904;4.256;2023-01-09T10:03:46;99798.53;;;14.85;66.63
48517;BME280;34310;51.904;4.256;2023-01-09T10:12:25;99822.69;;;14.83;66.59
48517;BME280;34310;51.904;4.256;2023-01-09T10:14:57;99836.56;;;14.83;66.42
48517;BME280;34310;51.904;4.256;2023-01-09T10:17:59;99848.75;;;14.84;66.60
48517;BME280;34310;51.904;4.256;2023-01-09T10:20:58;99850.56;;;14.87;66.50
48517;BME280;34310;51.904;4.256;2023-01-09T10:23:38;99861.78;;;14.86;66.39
48517;BME280;34310;51.904;4.256;2023-01-09T10:34:41;99873.06;;;14.86;66.51
48517;BME280;34310;51.904;4.256;2023-01-09T10:37:36;99866.22;;;14.88;66.77
48517;BME280;34310;51.904;4.256;2023-01-09T10:40:31;99878.44;;;14.91;66.75
48517;BME280;34310;51.904;4.256;2023-01-09T10:45:49;99876.78;;;14.93;66.73
48517;BME280;34310;51.904;4.256;2023-01-09T10:48:29;99885.53;;;14.95;66.61
48517;BME280;34310;51.904;4.256;2023-01-09T10:50:58;99889.88;;;14.96;66.68
48517;BME280;34310;51.904;4.256;2023-01-09T10:53:35;99890.78;;;14.97;66.50
48517;BME280;34310;51.904;4.256;2023-01-09T10:56:15;99894.38;;;15.00;66.54
48517;BME280;34310;51.904;4.256;2023-01-09T10:58:46;99886.63;;;15.02;66.59
48517;BME280;34310;51.904;4.256;2023-01-09T11:01:22;99900.59;;;15.04;66.52
48517;BME280;34310;51.904;4.256;2023-01-09T11:03:51;99903.19;;;15.04;66.60
48517;BME280;34310;51.904;4.256;2023-01-09T11:06:35;99896.28;;;15.04;66.42
48517;BME280;34310;51.904;4.256;2023-01-09T11:09:04;99902.38;;;15.05;66.38
48517;BME280;34310;51.904;4.256;2023-01-09T11:11:33;99905.03;;;15.06;66.44
48517;BME280;34310;51.904;4.256;2023-01-09T11:14:25;99903.31;;;15.07;66.57
48517;BME280;34310;51.904;4.256;2023-01-09T11:17:00;99912.88;;;15.08;66.44
48517;BME280;34310;51.904;4.256;2023-01-09T11:19:30;99915.53;;;15.09;66.52
48517;BME280;34310;51.904;4.256;2023-01-09T11:22:28;99911.28;;;15.11;66.60
48517;BME280;34310;51.904;4.256;2023-01-09T11:25:11;99908.84;;;15.16;66.64
48517;BME280;34310;51.904;4.256;2023-01-09T11:27:40;99918.53;;;15.20;66.77
48517;BME280;34310;51.904;4.256;2023-01-09T11:30:21;99922.19;;;15.25;66.59
48517;BME280;34310;51.904;4.256;2023-01-09T11:32:56;99926.66;;;15.29;66.70
48517;BME280;34310;51.904;4.256;2023-01-09T11:35:29;99936.38;;;15.33;66.81
48517;BME280;34310;51.904;4.256;2023-01-09T11:38:27;99929.69;;;15.40;66.92
48517;BME280;34310;51.904;4.256;2023-01-09T11:40:58;99930.69;;;15.43;66.72
48517;BME280;34310;51.904;4.256;2023-01-09T11:43:36;99936.00;;;15.46;66.63
48517;BME280;34310;51.904;4.256;2023-01-09T11:46:38;99938.75;;;15.51;66.80
48517;BME280;34310;51.904;4.256;2023-01-09T11:49:28;99946.72;;;15.56;66.77
48517;BME280;34310;51.904;4.256;2023-01-09T11:52:18;99947.13;;;15.65;66.56
48517;BME280;34310;51.904;4.256;2023-01-09T11:54:54;99949.94;;;15.71;66.45
48517;BME280;34310;51.904;4.256;2023-01-09T11:57:24;99953.53;;;15.74;66.42
48517;BME280;34310;51.904;4.256;2023-01-09T11:59:52;99970.13;;;15.78;66.62
48517;BME280;34310;51.904;4.256;2023-01-09T12:13:00;99969.13;;;15.98;66.13
48517;BME280;34310;51.904;4.256;2023-01-09T12:15:37;99975.34;;;16.02;66.32
48517;BME280;34310;51.904;4.256;2023-01-09T12:24:09;99974.81;;;16.12;66.03
48517;BME280;34310;51.904;4.256;2023-01-09T12:29:40;99977.63;;;16.18;66.00
48517;BME280;34310;51.904;4.256;2023-01-09T12:32:23;99989.09;;;16.23;66.14
48517;BME280;34310;51.904;4.256;2023-01-09T12:37:54;99988.44;;;16.29;66.04
48517;BME280;34310;51.904;4.256;2023-01-09T12:40:44;99990.25;;;16.31;66.00
48517;BME280;34310;51.904;4.256;2023-01-09T12:46:23;99994.00;;;16.39;65.83
48517;BME280;34310;51.904;4.256;2023-01-09T12:52:17;100009.06;;;16.48;65.76
48517;BME280;34310;51.904;4.256;2023-01-09T12:54:38;100015.22;;;16.50;65.60
48517;BME280;34310;51.904;4.256;2023-01-09T13:02:41;100005.97;;;16.60;65.37
48517;BME280;34310;51.904;4.256;2023-01-09T13:05:24;100014.78;;;16.63;65.17
48517;BME280;34310;51.904;4.256;2023-01-09T13:10:56;100020.16;;;16.68;65.44
48517;BME280;34310;51.904;4.256;2023-01-09T13:13:49;100028.03;;;16.69;65.09
48517;BME280;34310;51.904;4.256;2023-01-09T13:16:25;100039.41;;;16.71;64.85
48517;BME280;34310;51.904;4.256;2023-01-09T13:19:17;100033.41;;;16.74;64.93
48517;BME280;34310;51.904;4.256;2023-01-09T13:21:46;100046.56;;;16.77;64.94
48517;BME280;34310;51.904;4.256;2023-01-09T13:24:50;100043.22;;;16.81;64.90
48517;BME280;34310;51.904;4.256;2023-01-09T13:27:20;100055.41;;;16.82;65.05
48517;BME280;34310;51.904;4.256;2023-01-09T13:30:07;100058.13;;;16.85;64.78
48517;BME280;34310;51.904;4.256;2023-01-09T13:35:12;100060.88;;;16.90;64.77
48517;BME280;34310;51.904;4.256;2023-01-09T13:37:41;100063.53;;;16.91;64.43
48517;BME280;34310;51.904;4.256;2023-01-09T13:43:03;100073.28;;;16.97;64.46
48517;BME280;34310;51.904;4.256;2023-01-09T13:45:35;100070.66;;;16.97;64.19
48517;BME280;34310;51.904;4.256;2023-01-09T13:50:38;100085.56;;;17.01;64.07
48517;BME280;34310;51.904;4.256;2023-01-09T13:56:05;100091.84;;;17.06;64.01
48517;BME280;34310;51.904;4.256;2023-01-09T13:59:00;100091.00;;;17.07;63.71
48517;BME280;34310;51.904;4.256;2023-01-09T14:06:41;100109.47;;;17.13;64.00
48517;BME280;34310;51.904;4.256;2023-01-09T14:09:21;100121.72;;;17.16;63.93
48517;BME280;34310;51.904;4.256;2023-01-09T14:12:03;100129.59;;;17.17;63.81
48517;BME280;34310;51.904;4.256;2023-01-09T14:14:33;100130.47;;;17.18;63.66
48517;BME280;34310;51.904;4.256;2023-01-09T14:17:01;100135.75;;;17.19;63.39
48517;BME280;34310;51.904;4.256;2023-01-09T14:19:35;100140.13;;;17.20;63.32
48517;BME280;34310;51.904;4.256;2023-01-09T14:22:04;100150.59;;;17.22;63.00
48517;BME280;34310;51.904;4.256;2023-01-09T14:24:44;100156.72;;;17.22;63.41
48517;BME280;34310;51.904;4.256;2023-01-09T14:35:40;100172.66;;;17.31;63.23
48517;BME280;34310;51.904;4.256;2023-01-09T14:38:26;100176.09;;;17.30;62.65
48517;BME280;34310;51.904;4.256;2023-01-09T14:41:45;100189.16;;;17.30;62.40
48517;BME280;34310;51.904;4.256;2023-01-09T14:43:59;100190.91;;;17.31;62.70
48517;BME280;34310;51.904;4.256;2023-01-09T14:46:33;100204.06;;;17.34;62.61
48517;BME280;34310;51.904;4.256;2023-01-09T14:49:21;100203.25;;;17.36;62.68
48517;BME280;34310;51.904;4.256;2023-01-09T14:51:51;100210.31;;;17.38;62.76
48517;BME280;34310;51.904;4.256;2023-01-09T14:54:36;100209.41;;;17.38;62.74
48517;BME280;34310;51.904;4.256;2023-01-09T14:57:22;100203.31;;;17.37;62.18
48517;BME280;34310;51.904;4.256;2023-01-09T15:02:34;100218.19;;;17.40;62.21
48517;BME280;34310;51.904;4.256;2023-01-09T15:05:03;100216.50;;;17.42;62.45
48517;BME280;34310;51.904;4.256;2023-01-09T15:07:36;100213.91;;;17.42;62.10
48517;BME280;34310;51.904;4.256;2023-01-09T15:10:28;100230.44;;;17.42;61.85